Time;durP1;ratioP1;P1;durP2;ratioP2;P2;SDS_P1;SDS_P2;PMS_P1;PMS_P2;Temp;Humidity;BMP_temperature;BMP_pressure;BME280_temperature;BME280_humidity;BME280_pressure;Samples;Min_cycle;Max_cycle;Signal;HPM_P1;HPM_P2
2022/04/23 00:02:14;;;;;;;35.25;25.05;;;;;;;;;;4997079;28;20064;-80
2022/04/23 00:04:40;;;;;;;36.90;25.55;;;;;;;;;;4996681;28;20030;-79
2022/04/23 00:07:08;;;;;;;34.88;23.35;;;;;;;;;;4994832;28;20061;-79
2022/04/23 00:09:34;;;;;;;37.20;25.45;;;;;;;;;;4996137;28;20065;-79
2022/04/23 00:12:01;;;;;;;35.28;25.08;;;;;;;;;;4996912;28;20030;-79
2022/04/23 00:14:27;;;;;;;39.30;25.33;;;;;;;;;;4996635;28;20022;-79
2022/04/23 00:16:57;;;;;;;34.88;23.75;;;;;;;;;;4996753;28;20028;-79
2022/04/23 00:19:23;;;;;;;36.42;25.45;;;;;;;;;;4995997;28;20034;-79
2022/04/23 00:21:49;;;;;;;37.67;25.35;;;;;;;;;;4996528;28;20048;-79
2022/04/23 00:24:15;;;;;;;35.50;24.95;;;;;;;;;;4996241;28;20089;-79
2022/04/23 00:26:41;;;;;;;35.78;23.83;;;;;;;;;;4996856;28;20026;-79
2022/04/23 00:29:07;;;;;;;37.28;25.45;;;;;;;;;;4996257;28;20489;-79
2022/04/23 00:31:33;;;;;;;35.00;25.48;;;;;;;;;;4995397;28;20030;-79
2022/04/23 00:34:01;;;;;;;35.65;25.02;;;;;;;;;;4995372;28;20048;-79
2022/04/23 00:36:28;;;;;;;38.28;26.45;;;;;;;;;;4996847;28;20026;-79
2022/04/23 00:38:54;;;;;;;36.05;25.10;;;;;;;;;;4996609;28;20030;-79
2022/04/23 00:44:06;;;;;;;39.53;26.35;;;;;;;;;;4997103;28;20044;-79
2022/04/23 00:46:32;;;;;;;42.05;28.23;;;;;;;;;;4995965;28;20041;-79
2022/04/23 00:48:58;;;;;;;45.42;29.45;;;;;;;;;;4984144;28;20062;-79
2022/04/23 00:51:25;;;;;;;44.03;29.15;;;;;;;;;;4977199;28;20528;-79
2022/04/23 00:53:51;;;;;;;45.83;29.40;;;;;;;;;;4991653;28;20510;-79
2022/04/23 00:56:17;;;;;;;45.90;29.98;;;;;;;;;;4995168;28;20081;-79
2022/04/23 00:58:43;;;;;;;47.00;30.10;;;;;;;;;;4995676;28;20029;-79
2022/04/23 01:01:10;;;;;;;49.20;30.00;;;;;;;;;;4996497;28;20033;-79
2022/04/23 01:03:36;;;;;;;48.28;30.55;;;;;;;;;;4996072;28;20037;-79
2022/04/23 01:06:02;;;;;;;50.50;31.83;;;;;;;;;;4995992;28;20030;-79
2022/04/23 01:08:28;;;;;;;49.88;31.27;;;;;;;;;;4995944;28;20038;-79
2022/04/23 01:10:54;;;;;;;50.67;32.53;;;;;;;;;;4996138;28;20057;-79
2022/04/23 01:13:21;;;;;;;47.20;29.45;;;;;;;;;;4996365;28;20057;-79
2022/04/23 01:15:56;;;;;;;46.72;29.95;;;;;;;;;;4996924;28;20026;-79
2022/04/23 01:18:22;;;;;;;52.05;32.00;;;;;;;;;;4995352;28;20026;-79
2022/04/23 01:20:48;;;;;;;50.17;30.85;;;;;;;;;;5000675;28;20499;-79
2022/04/23 01:23:14;;;;;;;50.72;30.48;;;;;;;;;;5000132;28;20026;-79
2022/04/23 01:25:40;;;;;;;51.13;31.42;;;;;;;;;;5000344;28;20062;-79
2022/04/23 01:28:07;;;;;;;51.78;31.10;;;;;;;;;;4999316;28;20022;-79
2022/04/23 01:30:33;;;;;;;46.00;31.48;;;;;;;;;;5000124;28;20027;-79
2022/04/23 01:32:59;;;;;;;50.85;30.83;;;;;;;;;;4998497;28;20504;-79
2022/04/23 01:35:25;;;;;;;51.22;31.00;;;;;;;;;;4999580;28;20030;-79
2022/04/23 01:37:51;;;;;;;51.63;31.42;;;;;;;;;;4998322;28;20023;-79
2022/04/23 01:40:17;;;;;;;51.20;31.52;;;;;;;;;;4997668;28;20397;-79
2022/04/23 01:42:44;;;;;;;50.50;29.63;;;;;;;;;;4999245;28;20035;-79
2022/04/23 01:45:10;;;;;;;46.00;30.25;;;;;;;;;;4999065;28;20065;-80
2022/04/23 01:47:36;;;;;;;48.92;28.90;;;;;;;;;;4998085;28;20023;-79
2022/04/23 01:50:02;;;;;;;42.70;28.38;;;;;;;;;;4984591;28;20081;-79
2022/04/23 01:52:28;;;;;;;45.08;28.33;;;;;;;;;;4998796;28;20377;-79
2022/04/23 01:54:54;;;;;;;43.97;29.45;;;;;;;;;;4998563;28;20038;-80
2022/04/23 01:57:20;;;;;;;42.58;28.08;;;;;;;;;;4997701;28;20026;-79
2022/04/23 01:59:46;;;;;;;43.03;28.65;;;;;;;;;;4997815;28;20026;-79
2022/04/23 02:02:12;;;;;;;45.60;29.23;;;;;;;;;;4997389;28;20393;-80
2022/04/23 02:04:38;;;;;;;43.15;27.48;;;;;;;;;;5013666;28;20032;-80
2022/04/23 02:07:04;;;;;;;46.50;28.55;;;;;;;;;;4997754;28;20038;-79
2022/04/23 02:09:30;;;;;;;47.92;28.33;;;;;;;;;;4998248;28;20034;-79
2022/04/23 02:11:56;;;;;;;46.10;27.17;;;;;;;;;;4998470;28;20022;-79
2022/04/23 02:14:23;;;;;;;43.90;26.40;;;;;;;;;;4997824;28;20121;-79
2022/04/23 02:16:50;;;;;;;44.25;27.73;;;;;;;;;;4983002;28;20058;-79
2022/04/23 02:19:16;;;;;;;42.78;26.98;;;;;;;;;;4996717;28;20057;-79
2022/04/23 02:21:44;;;;;;;43.78;27.67;;;;;;;;;;4999026;28;20027;-79
2022/04/23 02:24:11;;;;;;;41.58;27.10;;;;;;;;;;4998324;28;20731;-79
2022/04/23 02:26:37;;;;;;;45.88;26.52;;;;;;;;;;4997757;28;20026;-79
2022/04/23 02:29:03;;;;;;;38.63;24.73;;;;;;;;;;4997559;28;20033;-79
2022/04/23 02:31:29;;;;;;;43.03;26.52;;;;;;;;;;4998880;28;20108;-79
2022/04/23 02:33:57;;;;;;;40.95;26.10;;;;;;;;;;4998294;28;20101;-80
2022/04/23 02:36:23;;;;;;;40.42;26.02;;;;;;;;;;4988991;28;20030;-79
2022/04/23 02:38:51;;;;;;;40.33;26.25;;;;;;;;;;4994292;28;20061;-79
2022/04/23 02:41:18;;;;;;;38.38;24.13;;;;;;;;;;4998330;28;20025;-79
2022/04/23 02:43:45;;;;;;;39.97;24.60;;;;;;;;;;4998484;28;20033;-79
2022/04/23 02:46:15;;;;;;;37.40;24.33;;;;;;;;;;4997652;28;20374;-79
2022/04/23 02:48:41;;;;;;;39.35;25.50;;;;;;;;;;4996907;28;20030;-79
2022/04/23 02:51:07;;;;;;;39.83;24.98;;;;;;;;;;4997837;28;20041;-79
2022/04/23 02:53:34;;;;;;;40.53;25.10;;;;;;;;;;4998433;28;20030;-79
2022/04/23 02:56:02;;;;;;;42.10;24.30;;;;;;;;;;4998399;28;20030;-79
2022/04/23 02:58:28;;;;;;;38.55;24.50;;;;;;;;;;4996547;28;20365;-79
2022/04/23 03:00:54;;;;;;;40.85;24.58;;;;;;;;;;4998571;28;20029;-79
2022/04/23 03:03:21;;;;;;;39.72;24.73;;;;;;;;;;4994893;28;20054;-79
2022/04/23 03:05:47;;;;;;;39.13;25.15;;;;;;;;;;4996709;28;20026;-79
2022/04/23 03:08:13;;;;;;;43.40;25.83;;;;;;;;;;4990854;28;20504;-79
2022/04/23 03:10:39;;;;;;;38.47;24.45;;;;;;;;;;4998653;28;20390;-79
2022/04/23 03:13:07;;;;;;;36.13;23.25;;;;;;;;;;4996253;28;20029;-79
2022/04/23 03:15:34;;;;;;;39.60;23.63;;;;;;;;;;4997685;28;20049;-79
2022/04/23 03:18:04;;;;;;;37.88;23.67;;;;;;;;;;4997891;28;20041;-79
2022/04/23 03:20:31;;;;;;;35.45;23.33;;;;;;;;;;4996568;28;20117;-80
2022/04/23 03:22:57;;;;;;;36.72;23.08;;;;;;;;;;4998397;28;20026;-79
2022/04/23 03:25:23;;;;;;;38.22;22.52;;;;;;;;;;4995854;28;20030;-79
2022/04/23 03:27:49;;;;;;;37.13;23.83;;;;;;;;;;4995980;28;20038;-79
2022/04/23 03:30:15;;;;;;;37.65;23.58;;;;;;;;;;4995620;28;20026;-79
2022/04/23 03:32:42;;;;;;;38.55;24.58;;;;;;;;;;4995459;28;20565;-79
2022/04/23 03:35:08;;;;;;;35.92;22.40;;;;;;;;;;4995604;28;20909;-79
2022/04/23 03:37:34;;;;;;;37.22;21.77;;;;;;;;;;4995918;28;20077;-79
2022/04/23 03:40:00;;;;;;;36.67;22.50;;;;;;;;;;4995208;28;20388;-79
2022/04/23 03:42:26;;;;;;;42.53;25.05;;;;;;;;;;4995898;28;20046;-79
2022/04/23 03:44:52;;;;;;;37.40;22.98;;;;;;;;;;4995457;28;20030;-79
2022/04/23 03:47:18;;;;;;;38.25;23.52;;;;;;;;;;4994709;28;20033;-79
2022/04/23 03:49:44;;;;;;;36.90;22.75;;;;;;;;;;4995752;28;20405;-79
2022/04/23 03:52:10;;;;;;;35.47;21.88;;;;;;;;;;4995752;28;20473;-79
2022/04/23 03:54:36;;;;;;;36.75;22.73;;;;;;;;;;4996055;28;20034;-79
2022/04/23 03:57:03;;;;;;;35.72;23.35;;;;;;;;;;4995415;28;20053;-79
2022/04/23 03:59:30;;;;;;;34.25;21.38;;;;;;;;;;4996112;28;20389;-79
2022/04/23 04:01:56;;;;;;;31.25;21.08;;;;;;;;;;4995792;28;20030;-79
2022/04/23 04:04:23;;;;;;;31.92;20.92;;;;;;;;;;4994739;28;20030;-79
2022/04/23 04:06:49;;;;;;;31.33;21.98;;;;;;;;;;4994990;28;20054;-79
2022/04/23 04:09:15;;;;;;;33.42;21.92;;;;;;;;;;4995793;28;20068;-79
2022/04/23 04:14:26;;;;;;;31.33;21.38;;;;;;;;;;4994792;28;20033;-79
2022/04/23 04:16:52;;;;;;;34.42;21.33;;;;;;;;;;4996347;28;20117;-79
2022/04/23 04:19:18;;;;;;;30.85;19.55;;;;;;;;;;4995871;28;20421;-79
2022/04/23 04:21:44;;;;;;;29.75;19.02;;;;;;;;;;4996871;28;20506;-79
2022/04/23 04:24:12;;;;;;;30.20;19.10;;;;;;;;;;4995200;28;20105;-79
2022/04/23 04:26:40;;;;;;;32.00;20.52;;;;;;;;;;4994962;28;20022;-79
2022/04/23 04:29:06;;;;;;;30.02;19.80;;;;;;;;;;4997635;28;20023;-79
2022/04/23 04:31:47;;;;;;;28.98;18.92;;;;;;;;;;4995914;28;20045;-81
2022/04/23 04:34:13;;;;;;;30.98;18.52;;;;;;;;;;4994137;28;20038;-80
2022/04/23 04:36:39;;;;;;;32.38;18.85;;;;;;;;;;4995640;28;20029;-80
2022/04/23 04:39:06;;;;;;;28.63;19.27;;;;;;;;;;4992780;28;20066;-79
2022/04/23 04:41:32;;;;;;;26.25;17.45;;;;;;;;;;4976212;28;20046;-79
2022/04/23 04:43:58;;;;;;;26.65;17.25;;;;;;;;;;5002544;28;20125;-80
2022/04/23 04:46:24;;;;;;;30.42;17.88;;;;;;;;;;4996738;28;20033;-82
2022/04/23 04:48:52;;;;;;;28.83;18.33;;;;;;;;;;4996268;28;20046;-81
2022/04/23 04:51:18;;;;;;;29.02;18.52;;;;;;;;;;4993515;28;20452;-80
2022/04/23 04:53:44;;;;;;;29.30;17.83;;;;;;;;;;4996086;28;20730;-81
2022/04/23 04:56:10;;;;;;;27.35;17.08;;;;;;;;;;5000403;28;20030;-81
2022/04/23 04:58:36;;;;;;;24.90;17.40;;;;;;;;;;4999347;28;20393;-81
2022/04/23 05:01:03;;;;;;;25.30;16.17;;;;;;;;;;5000876;28;20022;-81
2022/04/23 05:03:29;;;;;;;25.50;17.00;;;;;;;;;;4999588;28;20034;-82
2022/04/23 05:05:55;;;;;;;23.67;16.63;;;;;;;;;;4996945;28;20038;-81
2022/04/23 05:08:21;;;;;;;23.25;15.82;;;;;;;;;;4998888;28;20034;-82
2022/04/23 05:10:48;;;;;;;26.45;16.95;;;;;;;;;;4998702;28;20034;-81
2022/04/23 05:13:14;;;;;;;25.23;16.40;;;;;;;;;;4999927;28;20022;-81
2022/04/23 05:15:40;;;;;;;25.08;16.25;;;;;;;;;;4999251;28;20053;-81
2022/04/23 05:18:06;;;;;;;24.30;16.25;;;;;;;;;;5017632;28;20030;-81
2022/04/23 05:20:32;;;;;;;24.73;16.42;;;;;;;;;;4999658;28;20432;-81
2022/04/23 05:22:58;;;;;;;22.48;14.77;;;;;;;;;;5000074;28;20461;-82
2022/04/23 05:25:24;;;;;;;25.10;15.20;;;;;;;;;;4998510;28;20031;-82
2022/04/23 05:27:50;;;;;;;25.27;15.63;;;;;;;;;;4997155;28;20497;-82
2022/04/23 05:30:16;;;;;;;26.25;16.75;;;;;;;;;;4999947;28;20046;-82
2022/04/23 05:32:42;;;;;;;23.83;15.30;;;;;;;;;;5001878;28;20023;-82
2022/04/23 05:35:08;;;;;;;27.25;16.92;;;;;;;;;;5002159;28;20037;-82
2022/04/23 05:37:35;;;;;;;23.48;15.57;;;;;;;;;;4999157;28;20022;-82
2022/04/23 05:40:01;;;;;;;26.38;16.23;;;;;;;;;;4998493;28;20027;-82
2022/04/23 05:42:27;;;;;;;25.30;16.25;;;;;;;;;;4999369;28;20046;-82
2022/04/23 05:44:53;;;;;;;23.20;15.13;;;;;;;;;;4999625;28;20404;-82
2022/04/23 05:47:19;;;;;;;26.60;16.95;;;;;;;;;;4998715;28;20030;-82
2022/04/23 05:49:45;;;;;;;23.75;15.88;;;;;;;;;;5000019;28;20033;-82
2022/04/23 05:52:11;;;;;;;31.67;20.27;;;;;;;;;;4997656;28;20477;-81
2022/04/23 05:54:37;;;;;;;26.88;16.80;;;;;;;;;;4997363;28;20025;-82
2022/04/23 05:57:03;;;;;;;22.80;15.20;;;;;;;;;;4997899;28;20031;-82
2022/04/23 05:59:31;;;;;;;23.55;15.15;;;;;;;;;;4999429;28;20026;-82
2022/04/23 06:01:57;;;;;;;28.02;18.77;;;;;;;;;;4999754;28;20030;-79
2022/04/23 06:04:25;;;;;;;23.08;16.60;;;;;;;;;;4997932;28;20026;-80
2022/04/23 06:06:51;;;;;;;28.20;17.75;;;;;;;;;;4997487;28;20023;-79
2022/04/23 06:09:18;;;;;;;27.23;17.63;;;;;;;;;;4998714;28;20527;-79
2022/04/23 06:11:44;;;;;;;31.35;19.58;;;;;;;;;;4999324;28;20077;-79
2022/04/23 06:14:10;;;;;;;29.00;18.55;;;;;;;;;;4980912;28;20041;-82
2022/04/23 06:16:37;;;;;;;27.67;17.67;;;;;;;;;;4999566;28;20022;-81
2022/04/23 06:19:03;;;;;;;26.58;17.67;;;;;;;;;;4998891;28;20018;-81
2022/04/23 06:21:29;;;;;;;26.95;15.90;;;;;;;;;;4997922;28;20065;-82
2022/04/23 06:23:55;;;;;;;28.10;16.60;;;;;;;;;;4998434;28;20026;-82
2022/04/23 06:26:21;;;;;;;22.40;14.80;;;;;;;;;;4999595;28;20034;-82
2022/04/23 06:28:47;;;;;;;23.33;16.15;;;;;;;;;;4999388;28;20034;-82
2022/04/23 06:31:13;;;;;;;24.30;15.30;;;;;;;;;;4999913;28;20026;-81
2022/04/23 06:33:42;;;;;;;23.58;15.23;;;;;;;;;;5017687;28;20010;-81
2022/04/23 06:36:10;;;;;;;23.90;14.88;;;;;;;;;;5018259;28;20011;-81
2022/04/23 06:38:36;;;;;;;24.85;16.40;;;;;;;;;;5018395;28;20015;-81
2022/04/23 06:41:02;;;;;;;25.05;16.50;;;;;;;;;;5018889;28;20018;-81
2022/04/23 06:43:28;;;;;;;26.50;17.65;;;;;;;;;;5017297;28;20049;-82
2022/04/23 06:45:54;;;;;;;26.67;16.25;;;;;;;;;;5003173;28;20030;-82
2022/04/23 06:48:20;;;;;;;25.42;15.73;;;;;;;;;;4998623;28;20033;-81
2022/04/23 06:50:46;;;;;;;25.77;16.40;;;;;;;;;;4998957;28;20049;-82
2022/04/23 06:53:12;;;;;;;22.02;15.05;;;;;;;;;;4999484;28;20105;-82
2022/04/23 06:55:38;;;;;;;20.73;14.52;;;;;;;;;;4998155;28;20028;-81
2022/04/23 06:58:04;;;;;;;34.20;20.40;;;;;;;;;;5000234;28;20094;-81
2022/04/23 07:00:30;;;;;;;27.20;17.17;;;;;;;;;;4998114;28;20073;-82
2022/04/23 07:02:56;;;;;;;24.52;16.23;;;;;;;;;;4999541;28;20026;-82
2022/04/23 07:05:22;;;;;;;24.65;16.63;;;;;;;;;;4997224;28;20500;-82
2022/04/23 07:07:56;;;;;;;24.08;15.95;;;;;;;;;;4983193;28;20110;-81
2022/04/23 07:10:22;;;;;;;24.83;15.85;;;;;;;;;;4998569;28;20057;-81
2022/04/23 07:12:48;;;;;;;26.85;15.90;;;;;;;;;;5013971;28;20023;-82
2022/04/23 07:15:15;;;;;;;26.17;16.35;;;;;;;;;;4998106;28;20029;-83
2022/04/23 07:17:41;;;;;;;24.25;14.82;;;;;;;;;;5014238;28;20042;-81
2022/04/23 07:20:07;;;;;;;26.33;16.90;;;;;;;;;;5007147;28;20049;-82
2022/04/23 07:22:33;;;;;;;28.42;18.13;;;;;;;;;;4997949;28;20037;-82
2022/04/23 07:24:59;;;;;;;26.45;17.25;;;;;;;;;;4994136;28;20030;-82
2022/04/23 07:27:27;;;;;;;28.83;17.80;;;;;;;;;;5004325;28;20455;-81
2022/04/23 07:29:53;;;;;;;23.70;16.27;;;;;;;;;;4999612;28;20033;-82
2022/04/23 07:32:21;;;;;;;25.95;17.13;;;;;;;;;;5003445;28;20026;-82
2022/04/23 07:37:33;;;;;;;26.35;16.77;;;;;;;;;;4988271;28;20038;-82
2022/04/23 07:40:00;;;;;;;24.73;16.98;;;;;;;;;;4994538;28;20405;-82
2022/04/23 07:42:26;;;;;;;26.30;17.17;;;;;;;;;;4997320;28;20057;-82
2022/04/23 07:44:53;;;;;;;28.65;18.33;;;;;;;;;;4996791;28;20054;-82
2022/04/23 07:47:19;;;;;;;28.17;18.38;;;;;;;;;;4996898;28;20027;-81
2022/04/23 07:49:46;;;;;;;28.35;18.00;;;;;;;;;;4998047;28;20555;-82
2022/04/23 07:52:12;;;;;;;28.08;19.33;;;;;;;;;;4997489;28;20081;-82
2022/04/23 07:54:38;;;;;;;25.90;17.17;;;;;;;;;;4996924;28;20034;-81
2022/04/23 07:57:08;;;;;;;26.20;16.95;;;;;;;;;;4996853;28;20041;-81
2022/04/23 07:59:34;;;;;;;26.27;17.50;;;;;;;;;;4993448;28;20065;-81
2022/04/23 08:02:01;;;;;;;27.70;17.63;;;;;;;;;;4996321;28;20077;-82
2022/04/23 08:04:28;;;;;;;26.00;18.30;;;;;;;;;;4996788;28;20026;-82
2022/04/23 08:06:54;;;;;;;27.25;18.40;;;;;;;;;;4997752;28;20033;-83
2022/04/23 08:09:20;;;;;;;27.90;18.80;;;;;;;;;;4996401;28;20030;-82
2022/04/23 08:11:46;;;;;;;43.63;26.77;;;;;;;;;;4995111;28;20030;-83
2022/04/23 08:14:12;;;;;;;29.15;18.40;;;;;;;;;;4995084;28;20034;-83
2022/04/23 08:16:38;;;;;;;29.88;19.77;;;;;;;;;;4996174;28;20026;-83
2022/04/23 08:19:04;;;;;;;28.05;18.60;;;;;;;;;;4997459;28;20385;-84
2022/04/23 08:21:30;;;;;;;30.52;19.42;;;;;;;;;;4995805;28;20042;-83
2022/04/23 08:23:56;;;;;;;28.73;18.92;;;;;;;;;;4996575;28;20023;-82
2022/04/23 08:26:22;;;;;;;32.80;21.63;;;;;;;;;;4996333;28;20027;-82
2022/04/23 08:31:32;;;;;;;42.45;24.95;;;;;;;;;;4995171;28;20114;-82
2022/04/23 08:33:59;;;;;;;49.83;28.48;;;;;;;;;;4996597;28;20054;-83
2022/04/23 08:36:37;;;;;;;35.38;22.02;;;;;;;;;;4996340;28;20023;-82
2022/04/23 08:39:04;;;;;;;35.42;22.48;;;;;;;;;;4997580;28;20026;-82
2022/04/23 08:41:31;;;;;;;38.78;23.55;;;;;;;;;;4995560;28;20045;-83
2022/04/23 08:44:07;;;;;;;31.25;20.50;;;;;;;;;;4995407;28;20034;-82
2022/04/23 08:46:35;;;;;;;32.63;20.88;;;;;;;;;;4994886;28;20049;-82
2022/04/23 08:49:11;;;;;;;38.13;23.40;;;;;;;;;;4997247;28;20072;-82
2022/04/23 08:51:38;;;;;;;29.17;19.33;;;;;;;;;;4995292;28;20663;-82
2022/04/23 08:54:06;;;;;;;35.22;23.98;;;;;;;;;;4986376;28;20022;-82
2022/04/23 08:56:32;;;;;;;34.97;21.58;;;;;;;;;;4995735;28;20030;-83
2022/04/23 08:58:58;;;;;;;29.17;20.50;;;;;;;;;;4996980;28;20122;-82
2022/04/23 09:01:24;;;;;;;31.05;21.38;;;;;;;;;;4997019;28;20040;-83
2022/04/23 09:03:50;;;;;;;30.90;19.50;;;;;;;;;;4997635;28;20027;-83
2022/04/23 09:06:16;;;;;;;29.15;20.08;;;;;;;;;;5013640;28;20034;-83
2022/04/23 09:09:01;;;;;;;28.75;19.08;;;;;;;;;;4997453;28;20027;-83
2022/04/23 09:11:37;;;;;;;27.90;18.50;;;;;;;;;;4995586;28;20031;-83
2022/04/23 09:14:06;;;;;;;28.73;20.80;;;;;;;;;;4996858;28;20041;-83
2022/04/23 09:25:04;;;;;;;29.45;21.15;;;;;;;;;;4997130;28;20041;-83
2022/04/23 09:27:31;;;;;;;29.70;20.95;;;;;;;;;;4994191;28;20489;-83
2022/04/23 09:29:58;;;;;;;31.35;22.00;;;;;;;;;;4994025;28;20057;-83
2022/04/23 09:32:27;;;;;;;30.88;20.77;;;;;;;;;;4996022;28;20034;-82
2022/04/23 09:35:12;;;;;;;29.52;21.13;;;;;;;;;;4994507;28;20018;-83
2022/04/23 09:40:25;;;;;;;29.58;20.48;;;;;;;;;;4982662;28;20567;-83
2022/04/23 09:42:56;;;;;;;27.33;19.67;;;;;;;;;;4997685;28;20046;-82
2022/04/23 09:45:26;;;;;;;27.73;20.58;;;;;;;;;;4999223;28;20034;-82
2022/04/23 09:47:52;;;;;;;28.00;19.73;;;;;;;;;;4997147;28;20045;-82
2022/04/23 09:50:18;;;;;;;27.67;19.42;;;;;;;;;;4999687;28;20026;-81
2022/04/23 09:52:46;;;;;;;27.92;19.75;;;;;;;;;;4998336;28;20050;-82
2022/04/23 09:55:12;;;;;;;32.05;23.50;;;;;;;;;;4993607;28;20108;-82
2022/04/23 09:57:39;;;;;;;28.58;20.73;;;;;;;;;;4995480;28;20022;-81
2022/04/23 10:00:06;;;;;;;28.52;20.80;;;;;;;;;;4998122;28;20034;-81
2022/04/23 10:02:32;;;;;;;30.17;20.67;;;;;;;;;;4996721;28;20496;-82
2022/04/23 10:05:00;;;;;;;29.08;19.92;;;;;;;;;;4998583;28;20034;-81
2022/04/23 10:07:28;;;;;;;46.47;34.80;;;;;;;;;;4997069;28;20046;-81
2022/04/23 10:09:55;;;;;;;28.27;20.17;;;;;;;;;;4998956;28;20507;-81
2022/04/23 10:12:23;;;;;;;28.00;20.80;;;;;;;;;;4994120;28;20114;-82
2022/04/23 10:15:00;;;;;;;29.17;20.60;;;;;;;;;;4990140;28;20034;-82
2022/04/23 10:17:28;;;;;;;27.20;20.42;;;;;;;;;;4989845;28;20038;-81
2022/04/23 10:19:55;;;;;;;26.00;20.00;;;;;;;;;;4988257;28;20081;-82
2022/04/23 10:22:31;;;;;;;28.63;19.42;;;;;;;;;;4996061;28;20076;-82
2022/04/23 10:25:03;;;;;;;27.20;21.45;;;;;;;;;;4995837;28;20038;-82
2022/04/23 10:27:29;;;;;;;30.45;21.50;;;;;;;;;;4996545;28;20033;-81
2022/04/23 10:29:56;;;;;;;30.23;21.15;;;;;;;;;;4988898;28;20043;-81
2022/04/23 10:32:24;;;;;;;26.95;19.70;;;;;;;;;;4996341;28;20388;-81
2022/04/23 10:34:50;;;;;;;29.45;21.75;;;;;;;;;;4997364;28;20034;-81
2022/04/23 10:37:29;;;;;;;27.92;21.75;;;;;;;;;;4997829;28;20026;-81
2022/04/23 10:39:55;;;;;;;26.88;20.55;;;;;;;;;;4996787;28;20026;-81
2022/04/23 10:42:22;;;;;;;29.42;21.08;;;;;;;;;;4997206;28;20049;-82
2022/04/23 10:44:49;;;;;;;26.45;21.05;;;;;;;;;;4997941;28;20081;-81
2022/04/23 10:47:34;;;;;;;26.50;20.35;;;;;;;;;;4996756;28;20036;-82
2022/04/23 10:50:20;;;;;;;25.80;20.52;;;;;;;;;;4995990;28;20109;-82
2022/04/23 10:52:49;;;;;;;26.48;21.05;;;;;;;;;;4996266;28;20606;-81
2022/04/23 10:55:18;;;;;;;27.63;20.90;;;;;;;;;;4991967;28;20027;-81
2022/04/23 10:57:54;;;;;;;28.80;21.08;;;;;;;;;;4997997;28;20023;-82
2022/04/23 11:00:23;;;;;;;29.38;20.85;;;;;;;;;;4993347;28;20558;-81
2022/04/23 11:02:49;;;;;;;24.83;20.13;;;;;;;;;;4992690;28;20031;-81
2022/04/23 11:13:55;;;;;;;26.38;20.40;;;;;;;;;;4997549;28;20041;-82
2022/04/23 11:16:22;;;;;;;28.10;20.90;;;;;;;;;;4996573;28;20511;-82
2022/04/23 11:18:52;;;;;;;27.23;21.30;;;;;;;;;;4992153;28;20481;-81
2022/04/23 11:21:23;;;;;;;26.00;20.05;;;;;;;;;;4989355;28;20034;-82
2022/04/23 11:23:49;;;;;;;27.27;20.88;;;;;;;;;;4996680;28;20029;-81
2022/04/23 11:26:17;;;;;;;28.13;20.52;;;;;;;;;;4997144;28;20077;-81
2022/04/23 11:28:44;;;;;;;28.42;22.08;;;;;;;;;;4989442;28;20438;-82
2022/04/23 11:31:11;;;;;;;25.35;20.88;;;;;;;;;;4994591;28;20038;-81
2022/04/23 11:33:38;;;;;;;27.45;21.02;;;;;;;;;;4995020;28;20050;-81
2022/04/23 11:36:04;;;;;;;25.80;20.50;;;;;;;;;;4996938;28;20028;-83
2022/04/23 11:38:30;;;;;;;24.10;20.23;;;;;;;;;;4996694;28;20018;-82
2022/04/23 11:40:57;;;;;;;25.90;21.27;;;;;;;;;;4993739;28;20049;-81
2022/04/23 11:43:39;;;;;;;27.67;21.73;;;;;;;;;;4996065;28;20053;-81
2022/04/23 11:46:06;;;;;;;28.35;22.05;;;;;;;;;;4994513;28;20111;-81
2022/04/23 11:48:42;;;;;;;26.75;21.23;;;;;;;;;;4997083;28;20050;-80
2022/04/23 11:51:12;;;;;;;25.70;20.25;;;;;;;;;;4996275;28;20049;-83
2022/04/23 11:54:07;;;;;;;22.88;18.48;;;;;;;;;;4995734;28;20018;-83
2022/04/23 11:56:34;;;;;;;26.35;19.67;;;;;;;;;;4991825;28;20038;-82
2022/04/23 11:59:03;;;;;;;27.42;21.40;;;;;;;;;;4995290;28;20053;-81
2022/04/23 12:01:29;;;;;;;26.52;20.45;;;;;;;;;;4993656;28;20484;-79
2022/04/23 12:03:56;;;;;;;23.98;19.60;;;;;;;;;;4994643;28;20026;-80
2022/04/23 12:06:22;;;;;;;27.67;21.77;;;;;;;;;;4996357;28;20027;-80
2022/04/23 12:08:49;;;;;;;29.67;22.58;;;;;;;;;;4996013;28;20061;-79
2022/04/23 12:11:26;;;;;;;24.38;19.75;;;;;;;;;;4994247;28;20045;-81
2022/04/23 12:13:52;;;;;;;26.75;21.02;;;;;;;;;;4992976;28;20050;-81
2022/04/23 12:16:37;;;;;;;27.92;21.88;;;;;;;;;;4994498;28;20029;-80
2022/04/23 12:19:10;;;;;;;24.38;20.35;;;;;;;;;;4996652;28;20038;-80
2022/04/23 12:21:37;;;;;;;28.88;21.85;;;;;;;;;;4996226;28;20030;-81
2022/04/23 12:24:04;;;;;;;27.30;21.38;;;;;;;;;;4995528;28;20105;-81
2022/04/23 12:26:37;;;;;;;27.23;21.33;;;;;;;;;;4994328;28;20370;-80
2022/04/23 12:43:20;;;;;;;28.83;21.88;;;;;;;;;;4990069;28;20117;-81
2022/04/23 12:45:46;;;;;;;29.02;21.83;;;;;;;;;;4989398;28;20558;-81
2022/04/23 12:48:12;;;;;;;26.80;21.20;;;;;;;;;;4991611;28;20030;-81
2022/04/23 12:50:38;;;;;;;26.67;21.15;;;;;;;;;;4991461;28;20108;-81
2022/04/23 12:53:05;;;;;;;32.00;21.27;;;;;;;;;;4990118;28;20116;-82
2022/04/23 12:55:36;;;;;;;26.52;19.98;;;;;;;;;;4997608;28;20065;-81
2022/04/23 12:58:09;;;;;;;26.23;20.80;;;;;;;;;;5001384;28;20028;-81
2022/04/23 13:00:42;;;;;;;26.02;18.98;;;;;;;;;;4986160;28;20100;-81
2022/04/23 13:05:53;;;;;;;25.90;19.27;;;;;;;;;;4986494;28;20034;-81
2022/04/23 13:11:24;;;;;;;26.15;19.75;;;;;;;;;;4995944;28;20042;-81
2022/04/23 13:13:50;;;;;;;26.73;20.67;;;;;;;;;;4995007;28;20042;-82
2022/04/23 13:16:16;;;;;;;27.75;21.60;;;;;;;;;;4998591;28;20019;-84
2022/04/23 13:18:42;;;;;;;29.27;22.10;;;;;;;;;;4997626;28;20219;-82
2022/04/23 13:21:08;;;;;;;28.77;21.45;;;;;;;;;;5001137;28;20072;-82
2022/04/23 13:23:34;;;;;;;27.48;20.45;;;;;;;;;;5000865;28;20464;-81
2022/04/23 13:26:00;;;;;;;27.75;20.15;;;;;;;;;;4997502;28;20077;-82
2022/04/23 13:28:26;;;;;;;25.70;20.83;;;;;;;;;;4997785;28;20048;-81
2022/04/23 13:30:53;;;;;;;28.95;21.50;;;;;;;;;;4998005;28;20034;-81
2022/04/23 13:33:19;;;;;;;26.42;19.98;;;;;;;;;;4987153;28;20027;-82
2022/04/23 13:35:45;;;;;;;27.63;21.45;;;;;;;;;;4999491;28;20057;-82
2022/04/23 13:38:13;;;;;;;29.27;22.08;;;;;;;;;;4993938;28;20080;-81
2022/04/23 13:40:40;;;;;;;30.67;23.10;;;;;;;;;;4995473;28;20027;-81
2022/04/23 13:43:06;;;;;;;28.35;20.45;;;;;;;;;;5000746;28;20123;-82
2022/04/23 13:45:34;;;;;;;26.83;19.90;;;;;;;;;;5000339;28;20393;-82
2022/04/23 13:48:00;;;;;;;26.45;20.80;;;;;;;;;;4998897;28;20019;-81
2022/04/23 13:50:27;;;;;;;25.48;19.75;;;;;;;;;;4998365;28;20039;-82
2022/04/23 13:52:53;;;;;;;28.60;21.30;;;;;;;;;;4996203;28;20416;-82
2022/04/23 13:55:20;;;;;;;23.85;19.25;;;;;;;;;;4998468;28;20019;-82
2022/04/23 13:57:46;;;;;;;25.15;18.60;;;;;;;;;;4995051;28;20049;-82
2022/04/23 14:00:12;;;;;;;27.52;21.15;;;;;;;;;;4999057;28;20489;-82
2022/04/23 14:10:54;;;;;;;26.73;19.98;;;;;;;;;;4999640;28;20320;-82
2022/04/23 14:13:20;;;;;;;28.58;20.83;;;;;;;;;;4999936;28;20022;-82
2022/04/23 14:15:46;;;;;;;29.38;20.70;;;;;;;;;;5000233;28;20094;-82
2022/04/23 14:18:13;;;;;;;29.90;21.33;;;;;;;;;;4998255;28;20217;-82
2022/04/23 14:20:39;;;;;;;26.70;20.05;;;;;;;;;;4999237;28;20022;-83
2022/04/23 14:23:05;;;;;;;28.40;20.98;;;;;;;;;;4997788;28;20045;-82
2022/04/23 14:25:31;;;;;;;27.65;20.40;;;;;;;;;;4998621;28;20035;-82
2022/04/23 14:28:00;;;;;;;27.83;20.95;;;;;;;;;;4995284;28;20062;-82
2022/04/23 14:30:28;;;;;;;29.55;21.35;;;;;;;;;;4999675;28;20037;-82
2022/04/23 14:32:54;;;;;;;29.92;21.50;;;;;;;;;;4999400;28;20027;-82
2022/04/23 14:35:20;;;;;;;29.60;21.17;;;;;;;;;;5011035;28;20056;-82
2022/04/23 14:37:48;;;;;;;28.33;20.67;;;;;;;;;;5017648;28;20038;-82
2022/04/23 14:40:14;;;;;;;28.58;20.85;;;;;;;;;;5018965;28;20031;-82
2022/04/23 14:42:41;;;;;;;30.63;21.35;;;;;;;;;;5018944;28;20074;-81
2022/04/23 14:45:07;;;;;;;30.35;20.10;;;;;;;;;;5007634;28;20034;-84
2022/04/23 14:47:33;;;;;;;28.88;21.15;;;;;;;;;;5016136;28;20070;-81
2022/04/23 14:49:59;;;;;;;29.13;21.33;;;;;;;;;;4985410;28;20143;-82
2022/04/23 14:55:11;;;;;;;28.30;20.35;;;;;;;;;;4995025;28;20041;-82
2022/04/23 14:57:37;;;;;;;30.17;20.38;;;;;;;;;;4992879;28;20018;-82
2022/04/23 15:00:03;;;;;;;25.98;19.08;;;;;;;;;;4997830;28;20041;-81
2022/04/23 15:02:31;;;;;;;26.15;19.25;;;;;;;;;;4998813;28;20061;-82
2022/04/23 15:04:57;;;;;;;21.90;15.98;;;;;;;;;;4998505;28;20092;-82
2022/04/23 15:07:26;;;;;;;21.27;15.10;;;;;;;;;;4999176;28;20033;-82
2022/04/23 15:09:52;;;;;;;21.00;15.48;;;;;;;;;;4998489;28;20057;-82
2022/04/23 15:12:18;;;;;;;21.88;15.38;;;;;;;;;;4998854;28;20405;-82
2022/04/23 15:14:44;;;;;;;21.27;15.18;;;;;;;;;;5002278;28;20060;-83
2022/04/23 15:17:11;;;;;;;19.40;14.13;;;;;;;;;;5018900;28;20006;-82
2022/04/23 15:19:37;;;;;;;19.88;14.60;;;;;;;;;;5017338;28;20037;-83